sensor_id;sensor_type;location;lat;lon;timestamp;pressure;altitude;pressure_sealevel;temperature;humidity
66385;BME280;53426;55.872;37.462;2022-08-19T00:01:34;99851.09;;;23.58;42.80
66385;BME280;53426;55.872;37.462;2022-08-19T00:04:04;99847.56;;;23.64;42.80
66385;BME280;53426;55.872;37.462;2022-08-19T00:06:30;99872.69;;;23.51;43.12
66385;BME280;53426;55.872;37.462;2022-08-19T00:08:57;99873.13;;;23.48;43.17
66385;BME280;53426;55.872;37.462;2022-08-19T00:11:23;99870.25;;;23.56;42.73
66385;BME280;53426;55.872;37.462;2022-08-19T00:13:49;99873.69;;;23.37;43.03
66385;BME280;53426;55.872;37.462;2022-08-19T00:16:17;99881.53;;;23.25;43.23
66385;BME280;53426;55.872;37.462;2022-08-19T00:18:47;99875.13;;;23.33;43.09
66385;BME280;53426;55.872;37.462;2022-08-19T00:21:13;99874.28;;;23.32;42.99
66385;BME280;53426;55.872;37.462;2022-08-19T00:23:40;99874.91;;;23.28;42.88
66385;BME280;53426;55.872;37.462;2022-08-19T00:26:06;99867.84;;;23.33;42.69
66385;BME280;53426;55.872;37.462;2022-08-19T00:28:33;99877.88;;;23.46;42.47
66385;BME280;53426;55.872;37.462;2022-08-19T00:31:03;99875.00;;;23.54;42.31
66385;BME280;53426;55.872;37.462;2022-08-19T00:33:30;99874.09;;;23.41;42.33
66385;BME280;53426;55.872;37.462;2022-08-19T00:36:01;99886.56;;;23.42;42.05
66385;BME280;53426;55.872;37.462;2022-08-19T00:38:29;99874.94;;;23.41;42.04
66385;BME280;53426;55.872;37.462;2022-08-19T00:41:00;99875.75;;;23.28;42.14
66385;BME280;53426;55.872;37.462;2022-08-19T00:43:28;99881.78;;;23.37;42.03
66385;BME280;53426;55.872;37.462;2022-08-19T00:45:54;99880.13;;;23.36;41.83
66385;BME280;53426;55.872;37.462;2022-08-19T00:48:20;99887.19;;;23.37;41.88
66385;BME280;53426;55.872;37.462;2022-08-19T00:50:49;99869.66;;;23.20;41.84
66385;BME280;53426;55.872;37.462;2022-08-19T00:53:19;99891.72;;;23.30;41.73
66385;BME280;53426;55.872;37.462;2022-08-19T00:55:48;99882.34;;;23.13;42.05
66385;BME280;53426;55.872;37.462;2022-08-19T00:58:18;99889.72;;;22.98;42.43
66385;BME280;53426;55.872;37.462;2022-08-19T01:00:45;99891.38;;;22.99;42.54
66385;BME280;53426;55.872;37.462;2022-08-19T01:03:15;99893.13;;;23.13;42.13
66385;BME280;53426;55.872;37.462;2022-08-19T01:05:43;99885.25;;;23.24;41.66
66385;BME280;53426;55.872;37.462;2022-08-19T01:08:10;99891.00;;;23.08;42.08
66385;BME280;53426;55.872;37.462;2022-08-19T01:10:46;99892.94;;;23.21;41.88
66385;BME280;53426;55.872;37.462;2022-08-19T01:13:17;99885.84;;;23.07;42.04
66385;BME280;53426;55.872;37.462;2022-08-19T01:15:49;99891.84;;;23.09;42.09
66385;BME280;53426;55.872;37.462;2022-08-19T01:18:18;99892.06;;;23.14;41.89
66385;BME280;53426;55.872;37.462;2022-08-19T01:20:45;99899.16;;;23.15;41.87
66385;BME280;53426;55.872;37.462;2022-08-19T01:23:12;99924.34;;;23.22;41.49
66385;BME280;53426;55.872;37.462;2022-08-19T01:25:45;99915.72;;;23.05;41.95
66385;BME280;53426;55.872;37.462;2022-08-19T01:28:17;99917.84;;;23.10;42.07
66385;BME280;53426;55.872;37.462;2022-08-19T01:30:43;99914.81;;;22.91;42.27
66385;BME280;53426;55.872;37.462;2022-08-19T01:33:09;99908.56;;;22.84;42.42
66385;BME280;53426;55.872;37.462;2022-08-19T01:35:35;99909.34;;;22.78;42.67
66385;BME280;53426;55.872;37.462;2022-08-19T01:38:06;99910.81;;;22.81;42.63
66385;BME280;53426;55.872;37.462;2022-08-19T01:40:34;99907.59;;;22.71;42.83
66385;BME280;53426;55.872;37.462;2022-08-19T01:43:02;99902.09;;;22.79;42.80
66385;BME280;53426;55.872;37.462;2022-08-19T01:45:30;99906.25;;;22.81;42.64
66385;BME280;53426;55.872;37.462;2022-08-19T01:47:58;99912.06;;;22.78;42.75
66385;BME280;53426;55.872;37.462;2022-08-19T01:50:24;99921.41;;;22.82;42.76
66385;BME280;53426;55.872;37.462;2022-08-19T01:52:51;99913.16;;;22.63;43.24
66385;BME280;53426;55.872;37.462;2022-08-19T01:55:20;99918.31;;;22.58;43.38
66385;BME280;53426;55.872;37.462;2022-08-19T01:57:53;99912.16;;;22.64;43.25
66385;BME280;53426;55.872;37.462;2022-08-19T02:00:23;99911.59;;;22.75;43.06
66385;BME280;53426;55.872;37.462;2022-08-19T02:02:49;99915.09;;;22.41;43.71
66385;BME280;53426;55.872;37.462;2022-08-19T02:05:15;99919.19;;;22.37;43.78
66385;BME280;53426;55.872;37.462;2022-08-19T02:07:43;99908.78;;;22.34;43.80
66385;BME280;53426;55.872;37.462;2022-08-19T02:10:15;99912.88;;;22.51;43.61
66385;BME280;53426;55.872;37.462;2022-08-19T02:12:41;99910.97;;;22.73;43.22
66385;BME280;53426;55.872;37.462;2022-08-19T02:15:07;99916.44;;;22.86;42.96
66385;BME280;53426;55.872;37.462;2022-08-19T02:17:33;99917.28;;;22.86;42.99
66385;BME280;53426;55.872;37.462;2022-08-19T02:19:59;99926.69;;;22.90;42.80
66385;BME280;53426;55.872;37.462;2022-08-19T02:22:25;99918.81;;;22.96;42.69
66385;BME280;53426;55.872;37.462;2022-08-19T02:24:52;99922.97;;;22.98;42.68
66385;BME280;53426;55.872;37.462;2022-08-19T02:27:19;99924.75;;;22.84;42.84
66385;BME280;53426;55.872;37.462;2022-08-19T02:29:49;99917.13;;;22.67;43.28
66385;BME280;53426;55.872;37.462;2022-08-19T02:32:16;99914.94;;;22.77;43.10
66385;BME280;53426;55.872;37.462;2022-08-19T02:34:42;99913.41;;;22.96;42.92
66385;BME280;53426;55.872;37.462;2022-08-19T02:37:07;99915.63;;;22.85;42.86
66385;BME280;53426;55.872;37.462;2022-08-19T02:39:56;99938.72;;;22.67;43.56
66385;BME280;53426;55.872;37.462;2022-08-19T02:42:22;99935.53;;;22.57;43.65
66385;BME280;53426;55.872;37.462;2022-08-19T02:44:48;99932.38;;;22.74;43.39
66385;BME280;53426;55.872;37.462;2022-08-19T02:47:14;99942.00;;;22.83;43.14
66385;BME280;53426;55.872;37.462;2022-08-19T02:49:41;99945.41;;;22.99;43.06
66385;BME280;53426;55.872;37.462;2022-08-19T02:52:08;99944.19;;;23.01;42.74
66385;BME280;53426;55.872;37.462;2022-08-19T02:54:33;99940.47;;;23.09;42.64
66385;BME280;53426;55.872;37.462;2022-08-19T02:57:00;99942.56;;;23.07;42.56
66385;BME280;53426;55.872;37.462;2022-08-19T02:59:30;99935.53;;;23.12;42.67
66385;BME280;53426;55.872;37.462;2022-08-19T03:01:56;99933.25;;;23.16;42.31
66385;BME280;53426;55.872;37.462;2022-08-19T03:04:22;99939.63;;;23.08;42.58
66385;BME280;53426;55.872;37.462;2022-08-19T03:06:48;99933.47;;;23.21;42.17
66385;BME280;53426;55.872;37.462;2022-08-19T03:09:17;99931.69;;;23.34;42.00
66385;BME280;53426;55.872;37.462;2022-08-19T03:11:43;99933.34;;;23.42;41.83
66385;BME280;53426;55.872;37.462;2022-08-19T03:14:09;99940.81;;;23.33;42.03
66385;BME280;53426;55.872;37.462;2022-08-19T03:16:45;99936.81;;;23.23;42.25
66385;BME280;53426;55.872;37.462;2022-08-19T03:19:11;99948.47;;;23.23;42.29
66385;BME280;53426;55.872;37.462;2022-08-19T03:21:37;99956.44;;;23.04;42.56
66385;BME280;53426;55.872;37.462;2022-08-19T03:24:06;99954.41;;;22.78;43.45
66385;BME280;53426;55.872;37.462;2022-08-19T03:26:32;99955.84;;;22.74;43.44
66385;BME280;53426;55.872;37.462;2022-08-19T03:29:02;99957.75;;;22.80;43.39
66385;BME280;53426;55.872;37.462;2022-08-19T03:31:28;99960.66;;;22.78;43.52
66385;BME280;53426;55.872;37.462;2022-08-19T03:33:54;99963.66;;;22.41;44.22
66385;BME280;53426;55.872;37.462;2022-08-19T03:36:23;99954.41;;;22.29;44.56
66385;BME280;53426;55.872;37.462;2022-08-19T03:38:52;99956.59;;;22.40;44.38
66385;BME280;53426;55.872;37.462;2022-08-19T03:41:25;99954.25;;;22.58;44.15
66385;BME280;53426;55.872;37.462;2022-08-19T03:43:52;99945.00;;;22.46;44.30
66385;BME280;53426;55.872;37.462;2022-08-19T03:46:21;99962.59;;;22.63;44.16
66385;BME280;53426;55.872;37.462;2022-08-19T03:48:48;99954.06;;;22.87;43.64
66385;BME280;53426;55.872;37.462;2022-08-19T03:51:26;99935.00;;;22.96;43.26
66385;BME280;53426;55.872;37.462;2022-08-19T03:53:54;99936.81;;;23.23;42.73
66385;BME280;53426;55.872;37.462;2022-08-19T03:56:20;99939.53;;;23.23;42.74
66385;BME280;53426;55.872;37.462;2022-08-19T03:58:46;99944.84;;;23.10;43.42
66385;BME280;53426;55.872;37.462;2022-08-19T04:01:17;99948.41;;;23.17;43.09
66385;BME280;53426;55.872;37.462;2022-08-19T04:03:44;99940.00;;;22.99;43.19
66385;BME280;53426;55.872;37.462;2022-08-19T04:06:23;99950.84;;;23.05;43.10
66385;BME280;53426;55.872;37.462;2022-08-19T04:08:52;99959.38;;;23.09;43.25
66385;BME280;53426;55.872;37.462;2022-08-19T04:11:25;99956.91;;;23.14;42.99
66385;BME280;53426;55.872;37.462;2022-08-19T04:13:52;99933.16;;;22.68;43.85
66385;BME280;53426;55.872;37.462;2022-08-19T04:16:20;99963.59;;;22.83;43.69
66385;BME280;53426;55.872;37.462;2022-08-19T04:18:47;99954.75;;;22.96;43.52
66385;BME280;53426;55.872;37.462;2022-08-19T04:21:19;99929.63;;;22.96;43.20
66385;BME280;53426;55.872;37.462;2022-08-19T04:23:45;99966.06;;;23.13;43.18
66385;BME280;53426;55.872;37.462;2022-08-19T04:26:16;99946.84;;;23.35;42.85
66385;BME280;53426;55.872;37.462;2022-08-19T04:28:44;99958.63;;;23.56;42.22
66385;BME280;53426;55.872;37.462;2022-08-19T04:31:16;99957.63;;;23.76;41.95
66385;BME280;53426;55.872;37.462;2022-08-19T04:33:42;99965.75;;;23.29;42.80
66385;BME280;53426;55.872;37.462;2022-08-19T04:36:16;99951.38;;;23.69;42.27
66385;BME280;53426;55.872;37.462;2022-08-19T04:38:42;99963.94;;;24.10;41.33
66385;BME280;53426;55.872;37.462;2022-08-19T04:41:08;99954.03;;;24.43;40.49
66385;BME280;53426;55.872;37.462;2022-08-19T04:43:52;99954.59;;;24.85;39.56
66385;BME280;53426;55.872;37.462;2022-08-19T04:46:18;99951.03;;;25.11;39.31
66385;BME280;53426;55.872;37.462;2022-08-19T04:48:44;99947.28;;;25.12;39.01
66385;BME280;53426;55.872;37.462;2022-08-19T04:51:11;99970.19;;;25.22;39.12
66385;BME280;53426;55.872;37.462;2022-08-19T04:53:41;99972.03;;;25.35;38.83
66385;BME280;53426;55.872;37.462;2022-08-19T04:56:12;99971.22;;;25.21;38.86
66385;BME280;53426;55.872;37.462;2022-08-19T04:58:40;99977.25;;;25.30;38.86
66385;BME280;53426;55.872;37.462;2022-08-19T05:01:11;99973.72;;;25.23;38.83
66385;BME280;53426;55.872;37.462;2022-08-19T05:03:37;99969.53;;;25.20;38.96
66385;BME280;53426;55.872;37.462;2022-08-19T05:06:09;99976.22;;;25.24;39.01
66385;BME280;53426;55.872;37.462;2022-08-19T05:08:37;99972.84;;;25.35;38.89
66385;BME280;53426;55.872;37.462;2022-08-19T05:11:22;99964.50;;;25.37;38.59
66385;BME280;53426;55.872;37.462;2022-08-19T05:13:48;99981.19;;;25.40;39.07
66385;BME280;53426;55.872;37.462;2022-08-19T05:16:16;99979.03;;;25.49;38.68
66385;BME280;53426;55.872;37.462;2022-08-19T05:18:44;99982.13;;;25.66;38.30
66385;BME280;53426;55.872;37.462;2022-08-19T05:21:28;99981.16;;;26.30;37.60
66385;BME280;53426;55.872;37.462;2022-08-19T05:24:13;99978.25;;;26.56;36.63
66385;BME280;53426;55.872;37.462;2022-08-19T05:26:42;99977.41;;;26.80;36.23
66385;BME280;53426;55.872;37.462;2022-08-19T05:29:08;99974.44;;;27.06;35.75
66385;BME280;53426;55.872;37.462;2022-08-19T05:31:36;99969.66;;;27.27;35.36
66385;BME280;53426;55.872;37.462;2022-08-19T05:34:05;99974.72;;;26.55;36.65
66385;BME280;53426;55.872;37.462;2022-08-19T05:36:42;99972.41;;;26.28;36.91
66385;BME280;53426;55.872;37.462;2022-08-19T05:39:14;99969.09;;;25.88;37.72
66385;BME280;53426;55.872;37.462;2022-08-19T05:41:43;99969.38;;;25.73;38.11
66385;BME280;53426;55.872;37.462;2022-08-19T05:44:09;99969.81;;;25.70;38.19
66385;BME280;53426;55.872;37.462;2022-08-19T05:46:37;99972.88;;;26.18;37.37
66385;BME280;53426;55.872;37.462;2022-08-19T05:49:05;99977.25;;;26.50;37.16
66385;BME280;53426;55.872;37.462;2022-08-19T05:51:32;99972.94;;;26.92;36.17
66385;BME280;53426;55.872;37.462;2022-08-19T05:54:00;99961.56;;;27.20;35.75
66385;BME280;53426;55.872;37.462;2022-08-19T05:56:27;99962.75;;;27.42;35.23
66385;BME280;53426;55.872;37.462;2022-08-19T05:58:56;99967.94;;;27.80;34.91
66385;BME280;53426;55.872;37.462;2022-08-19T06:01:22;99962.69;;;27.97;34.45
66385;BME280;53426;55.872;37.462;2022-08-19T06:03:48;99974.91;;;28.06;34.33
66385;BME280;53426;55.872;37.462;2022-08-19T06:06:17;99972.34;;;27.93;34.71
66385;BME280;53426;55.872;37.462;2022-08-19T06:08:43;99974.38;;;27.68;35.00
66385;BME280;53426;55.872;37.462;2022-08-19T06:11:23;99974.47;;;27.61;35.25
66385;BME280;53426;55.872;37.462;2022-08-19T06:13:51;99981.28;;;27.52;35.30
66385;BME280;53426;55.872;37.462;2022-08-19T06:16:19;99986.03;;;27.38;35.34
66385;BME280;53426;55.872;37.462;2022-08-19T06:18:52;99975.75;;;27.22;35.77
66385;BME280;53426;55.872;37.462;2022-08-19T06:21:22;99985.22;;;26.95;36.12
66385;BME280;53426;55.872;37.462;2022-08-19T06:23:53;99975.81;;;26.97;36.16
66385;BME280;53426;55.872;37.462;2022-08-19T06:26:19;99964.94;;;26.48;36.98
66385;BME280;53426;55.872;37.462;2022-08-19T06:28:50;99979.69;;;26.34;37.57
66385;BME280;53426;55.872;37.462;2022-08-19T06:31:27;99972.84;;;25.87;38.89
66385;BME280;53426;55.872;37.462;2022-08-19T06:33:56;99958.34;;;25.68;38.96
66385;BME280;53426;55.872;37.462;2022-08-19T06:36:31;99977.06;;;25.82;39.18
66385;BME280;53426;55.872;37.462;2022-08-19T06:39:06;99989.25;;;26.05;38.77
66385;BME280;53426;55.872;37.462;2022-08-19T06:41:41;99985.25;;;25.69;39.74
66385;BME280;53426;55.872;37.462;2022-08-19T06:44:17;99989.88;;;25.69;39.71
66385;BME280;53426;55.872;37.462;2022-08-19T06:46:49;99983.53;;;25.75;39.53
66385;BME280;53426;55.872;37.462;2022-08-19T06:49:21;99987.66;;;25.39;40.23
66385;BME280;53426;55.872;37.462;2022-08-19T06:51:52;99986.72;;;25.72;39.79
66385;BME280;53426;55.872;37.462;2022-08-19T06:54:23;99977.22;;;25.88;39.61
66385;BME280;53426;55.872;37.462;2022-08-19T06:56:56;99989.75;;;25.89;39.59
66385;BME280;53426;55.872;37.462;2022-08-19T06:59:24;99996.94;;;26.08;39.00
66385;BME280;53426;55.872;37.462;2022-08-19T07:01:55;99978.84;;;25.64;39.89
66385;BME280;53426;55.872;37.462;2022-08-19T07:04:24;99981.09;;;25.67;40.02
66385;BME280;53426;55.872;37.462;2022-08-19T07:07:07;99966.78;;;25.47;40.07
66385;BME280;53426;55.872;37.462;2022-08-19T07:09:44;99988.28;;;25.35;40.73
66385;BME280;53426;55.872;37.462;2022-08-19T07:12:11;99983.31;;;25.25;40.85
66385;BME280;53426;55.872;37.462;2022-08-19T07:14:39;99987.47;;;25.28;40.89
66385;BME280;53426;55.872;37.462;2022-08-19T07:17:08;99978.63;;;25.59;40.51
66385;BME280;53426;55.872;37.462;2022-08-19T07:19:34;99980.03;;;25.74;39.87
66385;BME280;53426;55.872;37.462;2022-08-19T07:22:02;99977.75;;;25.65;39.85
66385;BME280;53426;55.872;37.462;2022-08-19T07:24:29;99976.00;;;25.83;39.88
66385;BME280;53426;55.872;37.462;2022-08-19T07:26:58;99975.84;;;25.72;39.93
66385;BME280;53426;55.872;37.462;2022-08-19T07:29:26;99988.09;;;25.36;40.18
66385;BME280;53426;55.872;37.462;2022-08-19T07:31:54;99984.97;;;25.26;40.64
66385;BME280;53426;55.872;37.462;2022-08-19T07:34:25;99970.63;;;25.19;41.08
66385;BME280;53426;55.872;37.462;2022-08-19T07:36:52;99980.44;;;25.14;40.80
66385;BME280;53426;55.872;37.462;2022-08-19T07:39:21;99977.28;;;25.10;40.72
66385;BME280;53426;55.872;37.462;2022-08-19T07:41:47;99990.19;;;25.21;40.13
66385;BME280;53426;55.872;37.462;2022-08-19T07:44:14;99981.88;;;25.10;40.17
66385;BME280;53426;55.872;37.462;2022-08-19T07:46:44;99980.19;;;25.22;39.71
66385;BME280;53426;55.872;37.462;2022-08-19T07:49:11;99984.56;;;25.29;39.39
66385;BME280;53426;55.872;37.462;2022-08-19T07:51:54;99987.38;;;25.48;39.05
66385;BME280;53426;55.872;37.462;2022-08-19T07:54:21;99978.44;;;25.47;38.92
66385;BME280;53426;55.872;37.462;2022-08-19T07:56:48;99979.50;;;25.39;38.64
66385;BME280;53426;55.872;37.462;2022-08-19T07:59:15;99996.16;;;25.56;38.59
66385;BME280;53426;55.872;37.462;2022-08-19T08:01:43;99998.72;;;25.89;37.84
66385;BME280;53426;55.872;37.462;2022-08-19T08:04:10;99999.56;;;26.28;36.94
66385;BME280;53426;55.872;37.462;2022-08-19T08:06:54;99997.34;;;27.17;35.52
66385;BME280;53426;55.872;37.462;2022-08-19T08:09:41;100000.41;;;27.94;34.01
66385;BME280;53426;55.872;37.462;2022-08-19T08:12:12;100014.50;;;28.50;32.07
66385;BME280;53426;55.872;37.462;2022-08-19T08:14:48;100019.47;;;27.94;33.07
66385;BME280;53426;55.872;37.462;2022-08-19T08:17:17;99995.19;;;27.62;33.54
66385;BME280;53426;55.872;37.462;2022-08-19T08:19:44;100003.00;;;27.88;33.16
66385;BME280;53426;55.872;37.462;2022-08-19T08:22:14;100000.41;;;27.64;33.37
66385;BME280;53426;55.872;37.462;2022-08-19T08:25:13;100022.78;;;27.23;33.51
66385;BME280;53426;55.872;37.462;2022-08-19T08:27:52;100004.53;;;27.30;33.44
66385;BME280;53426;55.872;37.462;2022-08-19T08:31:04;99912.34;;;26.67;33.28
66385;BME280;53426;55.872;37.462;2022-08-19T08:33:30;99975.97;;;27.02;33.47
66385;BME280;53426;55.872;37.462;2022-08-19T08:35:56;100032.84;;;27.40;33.41
66385;BME280;53426;55.872;37.462;2022-08-19T08:38:22;100007.25;;;26.87;33.75
66385;BME280;53426;55.872;37.462;2022-08-19T08:40:51;100008.34;;;26.79;34.34
66385;BME280;53426;55.872;37.462;2022-08-19T08:43:38;100032.41;;;27.00;34.47
66385;BME280;53426;55.872;37.462;2022-08-19T08:46:26;100025.88;;;26.83;35.05
66385;BME280;53426;55.872;37.462;2022-08-19T08:51:33;100025.31;;;26.50;35.80
66385;BME280;53426;55.872;37.462;2022-08-19T08:54:02;100028.81;;;26.26;36.34
66385;BME280;53426;55.872;37.462;2022-08-19T08:56:29;100009.81;;;26.19;36.93
66385;BME280;53426;55.872;37.462;2022-08-19T08:59:10;100018.22;;;26.11;36.91
66385;BME280;53426;55.872;37.462;2022-08-19T09:01:38;100010.63;;;25.88;37.43
66385;BME280;53426;55.872;37.462;2022-08-19T09:04:05;100013.31;;;25.95;37.59
66385;BME280;53426;55.872;37.462;2022-08-19T09:09:49;100021.22;;;26.90;35.87
66385;BME280;53426;55.872;37.462;2022-08-19T09:12:44;100009.06;;;27.72;34.55
66385;BME280;53426;55.872;37.462;2022-08-19T09:15:18;99950.66;;;28.46;32.82
66385;BME280;53426;55.872;37.462;2022-08-19T09:18:20;99998.19;;;29.20;31.34
66385;BME280;53426;55.872;37.462;2022-08-19T09:20:46;100026.53;;;29.31;31.18
66385;BME280;53426;55.872;37.462;2022-08-19T09:23:13;100012.63;;;29.67;30.83
66385;BME280;53426;55.872;37.462;2022-08-19T09:25:39;99945.34;;;29.89;29.64
66385;BME280;53426;55.872;37.462;2022-08-19T09:28:06;99897.34;;;29.77;29.51
66385;BME280;53426;55.872;37.462;2022-08-19T09:30:36;100026.72;;;30.77;29.40
66385;BME280;53426;55.872;37.462;2022-08-19T09:33:05;100021.16;;;31.23;28.40
66385;BME280;53426;55.872;37.462;2022-08-19T09:35:32;100023.19;;;31.92;27.90
66385;BME280;53426;55.872;37.462;2022-08-19T09:37:59;100009.38;;;31.22;28.38
66385;BME280;53426;55.872;37.462;2022-08-19T09:40:30;100015.69;;;30.89;29.36
66385;BME280;53426;55.872;37.462;2022-08-19T09:42:57;99961.81;;;30.40;29.58
66385;BME280;53426;55.872;37.462;2022-08-19T09:45:28;99984.47;;;30.07;30.33
66385;BME280;53426;55.872;37.462;2022-08-19T09:48:00;100018.47;;;29.87;30.33
66385;BME280;53426;55.872;37.462;2022-08-19T09:50:26;99993.81;;;28.73;32.00
66385;BME280;53426;55.872;37.462;2022-08-19T09:52:52;99934.44;;;28.86;31.50
66385;BME280;53426;55.872;37.462;2022-08-19T09:55:19;100020.75;;;29.79;31.18
66385;BME280;53426;55.872;37.462;2022-08-19T09:57:44;100002.09;;;29.24;31.70
66385;BME280;53426;55.872;37.462;2022-08-19T10:00:10;99979.00;;;29.03;31.65
66385;BME280;53426;55.872;37.462;2022-08-19T10:02:37;99967.84;;;28.58;31.30
66385;BME280;53426;55.872;37.462;2022-08-19T10:05:03;100032.16;;;28.59;31.54
66385;BME280;53426;55.872;37.462;2022-08-19T10:07:48;100061.56;;;28.27;31.35
66385;BME280;53426;55.872;37.462;2022-08-19T10:10:17;99951.78;;;28.27;30.27
66385;BME280;53426;55.872;37.462;2022-08-19T10:12:42;100022.81;;;28.67;29.42
66385;BME280;53426;55.872;37.462;2022-08-19T10:15:11;100018.22;;;29.26;28.21
66385;BME280;53426;55.872;37.462;2022-08-19T10:17:38;100030.06;;;29.66;27.42
66385;BME280;53426;55.872;37.462;2022-08-19T10:20:04;100037.97;;;30.48;26.06
66385;BME280;53426;55.872;37.462;2022-08-19T10:22:30;99963.94;;;29.76;25.65
66385;BME280;53426;55.872;37.462;2022-08-19T10:24:56;99979.41;;;29.59;25.61
66385;BME280;53426;55.872;37.462;2022-08-19T10:27:22;100042.28;;;29.64;25.51
66385;BME280;53426;55.872;37.462;2022-08-19T10:29:48;100040.13;;;29.77;25.79
66385;BME280;53426;55.872;37.462;2022-08-19T10:32:27;100022.69;;;30.07;25.83
66385;BME280;53426;55.872;37.462;2022-08-19T10:34:55;99962.34;;;30.37;24.01
66385;BME280;53426;55.872;37.462;2022-08-19T10:37:21;100046.19;;;30.48;24.73
66385;BME280;53426;55.872;37.462;2022-08-19T10:39:48;100035.25;;;30.48;24.75
66385;BME280;53426;55.872;37.462;2022-08-19T10:42:38;100041.47;;;31.10;24.54
66385;BME280;53426;55.872;37.462;2022-08-19T10:45:05;100053.16;;;30.89;24.17
66385;BME280;53426;55.872;37.462;2022-08-19T10:47:33;100024.06;;;30.99;24.38
66385;BME280;53426;55.872;37.462;2022-08-19T10:49:59;100013.91;;;31.72;23.34
66385;BME280;53426;55.872;37.462;2022-08-19T10:52:44;100031.75;;;31.36;24.06
66385;BME280;53426;55.872;37.462;2022-08-19T10:55:10;100035.59;;;30.68;25.03
66385;BME280;53426;55.872;37.462;2022-08-19T10:57:54;100027.81;;;30.31;25.54
66385;BME280;53426;55.872;37.462;2022-08-19T11:00:21;100047.50;;;30.33;24.66
66385;BME280;53426;55.872;37.462;2022-08-19T11:02:49;100061.78;;;29.56;24.07
66385;BME280;53426;55.872;37.462;2022-08-19T11:05:15;100064.13;;;29.05;25.28
66385;BME280;53426;55.872;37.462;2022-08-19T11:07:42;100059.97;;;28.80;25.95
66385;BME280;53426;55.872;37.462;2022-08-19T11:10:12;100007.69;;;29.06;25.58
66385;BME280;53426;55.872;37.462;2022-08-19T11:12:40;99988.28;;;28.91;25.53
66385;BME280;53426;55.872;37.462;2022-08-19T11:15:08;100019.19;;;28.73;25.96
66385;BME280;53426;55.872;37.462;2022-08-19T11:17:38;99984.16;;;28.47;26.05
66385;BME280;53426;55.872;37.462;2022-08-19T11:20:11;99961.81;;;27.85;26.75
66385;BME280;53426;55.872;37.462;2022-08-19T11:22:38;99983.94;;;27.88;26.24
66385;BME280;53426;55.872;37.462;2022-08-19T11:25:04;100024.44;;;28.15;25.70
66385;BME280;53426;55.872;37.462;2022-08-19T11:27:30;100057.41;;;28.07;23.52
66385;BME280;53426;55.872;37.462;2022-08-19T11:29:56;99997.00;;;27.68;21.91
66385;BME280;53426;55.872;37.462;2022-08-19T11:32:22;99989.88;;;27.31;21.98
66385;BME280;53426;55.872;37.462;2022-08-19T11:34:51;100032.25;;;27.20;22.41
66385;BME280;53426;55.872;37.462;2022-08-19T11:37:17;100020.41;;;26.90;21.79
66385;BME280;53426;55.872;37.462;2022-08-19T11:39:42;100033.59;;;27.29;22.06
66385;BME280;53426;55.872;37.462;2022-08-19T11:42:09;100038.00;;;27.30;22.21
66385;BME280;53426;55.872;37.462;2022-08-19T11:44:53;100022.63;;;27.18;22.38
66385;BME280;53426;55.872;37.462;2022-08-19T11:47:23;99952.94;;;26.62;22.42
66385;BME280;53426;55.872;37.462;2022-08-19T11:49:49;100008.50;;;26.84;22.14
66385;BME280;53426;55.872;37.462;2022-08-19T11:52:15;100027.28;;;26.92;22.50
66385;BME280;53426;55.872;37.462;2022-08-19T11:54:41;100023.38;;;26.88;23.05
66385;BME280;53426;55.872;37.462;2022-08-19T11:57:07;100019.13;;;26.92;23.29
66385;BME280;53426;55.872;37.462;2022-08-19T11:59:32;100033.03;;;26.78;23.53
66385;BME280;53426;55.872;37.462;2022-08-19T12:01:58;100046.09;;;26.62;23.11
66385;BME280;53426;55.872;37.462;2022-08-19T12:04:24;100047.81;;;26.57;23.17
66385;BME280;53426;55.872;37.462;2022-08-19T12:06:50;100017.00;;;26.45;23.29
66385;BME280;53426;55.872;37.462;2022-08-19T12:09:20;100023.09;;;26.65;23.90
66385;BME280;53426;55.872;37.462;2022-08-19T12:11:48;100030.28;;;26.53;24.70
66385;BME280;53426;55.872;37.462;2022-08-19T12:14:14;99964.59;;;26.06;25.21
66385;BME280;53426;55.872;37.462;2022-08-19T12:16:44;100033.19;;;26.58;25.24
66385;BME280;53426;55.872;37.462;2022-08-19T12:19:11;99955.69;;;26.31;25.43
66385;BME280;53426;55.872;37.462;2022-08-19T12:21:36;100009.59;;;26.52;25.71
66385;BME280;53426;55.872;37.462;2022-08-19T12:24:04;99998.53;;;26.53;25.97
66385;BME280;53426;55.872;37.462;2022-08-19T12:26:30;100034.47;;;26.55;26.46
66385;BME280;53426;55.872;37.462;2022-08-19T12:28:57;100019.75;;;26.63;27.75
66385;BME280;53426;55.872;37.462;2022-08-19T12:31:27;100021.41;;;26.39;28.49
66385;BME280;53426;55.872;37.462;2022-08-19T12:33:53;99999.72;;;26.01;28.99
66385;BME280;53426;55.872;37.462;2022-08-19T12:36:21;100033.81;;;26.22;29.55
66385;BME280;53426;55.872;37.462;2022-08-19T12:38:48;100018.09;;;25.99;29.55
66385;BME280;53426;55.872;37.462;2022-08-19T12:41:16;99980.94;;;25.93;29.86
66385;BME280;53426;55.872;37.462;2022-08-19T12:43:44;100011.50;;;26.13;29.72
66385;BME280;53426;55.872;37.462;2022-08-19T12:46:11;99979.03;;;26.00;29.79
66385;BME280;53426;55.872;37.462;2022-08-19T12:48:38;100015.03;;;26.27;29.74
66385;BME280;53426;55.872;37.462;2022-08-19T12:51:13;99992.97;;;26.10;29.98
66385;BME280;53426;55.872;37.462;2022-08-19T12:53:41;99954.41;;;25.64;30.26
66385;BME280;53426;55.872;37.462;2022-08-19T12:56:09;100009.69;;;26.07;30.22
66385;BME280;53426;55.872;37.462;2022-08-19T12:58:36;100015.53;;;26.04;30.00
66385;BME280;53426;55.872;37.462;2022-08-19T13:01:12;100016.72;;;26.15;29.71
66385;BME280;53426;55.872;37.462;2022-08-19T13:03:39;99974.00;;;25.66;30.20
66385;BME280;53426;55.872;37.462;2022-08-19T13:06:05;100017.78;;;26.14;30.09